sensor_id;sensor_type;location;lat;lon;timestamp;pressure;altitude;pressure_sealevel;temperature;humidity
17764;BME280;22245;52.832;13.816;2023-12-20T00:01:09;100623.72;;;7.26;100.00
17764;BME280;22245;52.832;13.816;2023-12-20T00:04:32;100626.25;;;7.27;100.00
17764;BME280;22245;52.832;13.816;2023-12-20T00:07:54;100616.50;;;7.28;100.00
17764;BME280;22245;52.832;13.816;2023-12-20T00:11:15;100621.41;;;7.21;100.00
17764;BME280;22245;52.832;13.816;2023-12-20T00:14:37;100618.00;;;7.19;100.00
17764;BME280;22245;52.832;13.816;2023-12-20T00:17:58;100610.06;;;7.19;100.00
17764;BME280;22245;52.832;13.816;2023-12-20T00:21:22;100618.53;;;7.24;100.00
17764;BME280;22245;52.832;13.816;2023-12-20T00:24:44;100621.41;;;7.21;100.00
17764;BME280;22245;52.832;13.816;2023-12-20T00:28:06;100612.50;;;7.22;100.00
17764;BME280;22245;52.832;13.816;2023-12-20T00:31:28;100609.13;;;7.20;100.00
17764;BME280;22245;52.832;13.816;2023-12-20T00:34:50;100608.78;;;7.24;100.00
17764;BME280;22245;52.832;13.816;2023-12-20T00:38:12;100594.47;;;7.27;100.00
17764;BME280;22245;52.832;13.816;2023-12-20T00:41:34;100597.34;;;7.24;100.00
17764;BME280;22245;52.832;13.816;2023-12-20T00:44:56;100593.97;;;7.22;100.00
17764;BME280;22245;52.832;13.816;2023-12-20T00:48:18;100592.59;;;7.16;100.00
17764;BME280;22245;52.832;13.816;2023-12-20T00:51:40;100594.28;;;7.17;100.00
17764;BME280;22245;52.832;13.816;2023-12-20T00:55:03;100605.41;;;7.22;100.00
17764;BME280;22245;52.832;13.816;2023-12-20T00:58:25;100598.22;;;7.12;100.00
17764;BME280;22245;52.832;13.816;2023-12-20T01:01:48;100599.59;;;7.17;100.00
17764;BME280;22245;52.832;13.816;2023-12-20T01:05:10;100594.63;;;7.13;100.00
17764;BME280;22245;52.832;13.816;2023-12-20T01:08:31;100605.84;;;7.16;100.00
17764;BME280;22245;52.832;13.816;2023-12-20T01:11:56;100604.47;;;7.10;100.00
17764;BME280;22245;52.832;13.816;2023-12-20T01:15:18;100607.53;;;7.17;100.00
17764;BME280;22245;52.832;13.816;2023-12-20T01:18:39;100605.72;;;7.18;100.00
17764;BME280;22245;52.832;13.816;2023-12-20T01:22:01;100617.28;;;7.17;100.00
17764;BME280;22245;52.832;13.816;2023-12-20T01:25:23;100628.53;;;7.07;100.00
17764;BME280;22245;52.832;13.816;2023-12-20T01:28:46;100615.53;;;7.04;100.00
17764;BME280;22245;52.832;13.816;2023-12-20T01:32:08;100597.53;;;6.97;100.00
17764;BME280;22245;52.832;13.816;2023-12-20T01:35:29;100599.88;;;7.01;100.00
17764;BME280;22245;52.832;13.816;2023-12-20T01:38:51;100590.34;;;6.99;100.00
17764;BME280;22245;52.832;13.816;2023-12-20T01:42:12;100578.69;;;7.01;100.00
17764;BME280;22245;52.832;13.816;2023-12-20T01:45:36;100585.44;;;7.05;100.00
17764;BME280;22245;52.832;13.816;2023-12-20T01:48:58;100584.47;;;7.06;100.00
17764;BME280;22245;52.832;13.816;2023-12-20T01:52:19;100587.59;;;7.00;100.00
17764;BME280;22245;52.832;13.816;2023-12-20T01:55:41;100579.88;;;6.97;100.00
17764;BME280;22245;52.832;13.816;2023-12-20T01:59:03;100591.63;;;6.93;100.00
17764;BME280;22245;52.832;13.816;2023-12-20T02:02:27;100596.94;;;6.93;100.00
17764;BME280;22245;52.832;13.816;2023-12-20T02:05:50;100601.28;;;6.94;100.00
17764;BME280;22245;52.832;13.816;2023-12-20T02:09:11;100600.41;;;6.93;100.00
17764;BME280;22245;52.832;13.816;2023-12-20T02:12:33;100605.59;;;6.95;100.00
17764;BME280;22245;52.832;13.816;2023-12-20T02:15:54;100599.59;;;6.93;100.00
17764;BME280;22245;52.832;13.816;2023-12-20T02:19:17;100591.75;;;6.91;100.00
17764;BME280;22245;52.832;13.816;2023-12-20T02:22:41;100590.41;;;6.86;100.00
17764;BME280;22245;52.832;13.816;2023-12-20T02:26:03;100590.63;;;6.83;100.00
17764;BME280;22245;52.832;13.816;2023-12-20T02:29:25;100609.16;;;6.83;100.00
17764;BME280;22245;52.832;13.816;2023-12-20T02:32:49;100607.13;;;6.73;100.00
17764;BME280;22245;52.832;13.816;2023-12-20T02:36:11;100608.31;;;6.69;100.00
17764;BME280;22245;52.832;13.816;2023-12-20T02:39:34;100602.06;;;6.70;100.00
17764;BME280;22245;52.832;13.816;2023-12-20T02:42:56;100608.31;;;6.69;100.00
17764;BME280;22245;52.832;13.816;2023-12-20T02:46:17;100610.88;;;6.58;100.00
17764;BME280;22245;52.832;13.816;2023-12-20T02:49:39;100591.28;;;6.60;100.00
17764;BME280;22245;52.832;13.816;2023-12-20T02:53:01;100602.72;;;6.61;100.00
17764;BME280;22245;52.832;13.816;2023-12-20T02:56:24;100593.84;;;6.62;100.00
17764;BME280;22245;52.832;13.816;2023-12-20T02:59:46;100596.69;;;6.59;100.00
17764;BME280;22245;52.832;13.816;2023-12-20T03:03:07;100609.28;;;6.55;100.00
17764;BME280;22245;52.832;13.816;2023-12-20T03:06:29;100605.06;;;6.53;100.00
17764;BME280;22245;52.832;13.816;2023-12-20T03:09:50;100603.59;;;6.48;100.00
17764;BME280;22245;52.832;13.816;2023-12-20T03:13:32;100602.66;;;6.49;100.00
17764;BME280;22245;52.832;13.816;2023-12-20T03:16:54;100594.19;;;6.44;100.00
17764;BME280;22245;52.832;13.816;2023-12-20T03:20:19;100591.13;;;6.50;100.00
17764;BME280;22245;52.832;13.816;2023-12-20T03:23:40;100587.00;;;6.46;100.00
17764;BME280;22245;52.832;13.816;2023-12-20T03:27:02;100585.50;;;6.42;100.00
17764;BME280;22245;52.832;13.816;2023-12-20T03:30:25;100583.81;;;6.41;100.00
17764;BME280;22245;52.832;13.816;2023-12-20T03:33:47;100591.97;;;6.38;100.00
17764;BME280;22245;52.832;13.816;2023-12-20T03:37:09;100598.09;;;6.39;100.00
17764;BME280;22245;52.832;13.816;2023-12-20T03:40:31;100595.34;;;6.40;100.00
17764;BME280;22245;52.832;13.816;2023-12-20T03:43:52;100582.53;;;6.34;100.00
17764;BME280;22245;52.832;13.816;2023-12-20T03:47:16;100587.00;;;6.33;100.00
17764;BME280;22245;52.832;13.816;2023-12-20T03:50:37;100586.16;;;6.33;100.00
17764;BME280;22245;52.832;13.816;2023-12-20T03:53:59;100590.47;;;6.34;100.00
17764;BME280;22245;52.832;13.816;2023-12-20T03:57:20;100576.94;;;6.39;100.00
17764;BME280;22245;52.832;13.816;2023-12-20T04:00:42;100582.53;;;6.34;100.00
17764;BME280;22245;52.832;13.816;2023-12-20T04:04:05;100586.28;;;6.31;100.00
17764;BME280;22245;52.832;13.816;2023-12-20T04:07:26;100583.94;;;6.27;100.00
17764;BME280;22245;52.832;13.816;2023-12-20T04:10:48;100576.53;;;6.32;100.00
17764;BME280;22245;52.832;13.816;2023-12-20T04:14:09;100564.47;;;6.28;100.00
17764;BME280;22245;52.832;13.816;2023-12-20T04:17:31;100563.72;;;6.26;100.00
17764;BME280;22245;52.832;13.816;2023-12-20T04:20:55;100565.09;;;6.31;100.00
17764;BME280;22245;52.832;13.816;2023-12-20T04:24:16;100562.56;;;6.30;100.00
17764;BME280;22245;52.832;13.816;2023-12-20T04:27:37;100557.78;;;6.22;100.00
17764;BME280;22245;52.832;13.816;2023-12-20T04:30:59;100552.63;;;6.20;100.00
17764;BME280;22245;52.832;13.816;2023-12-20T04:34:22;100554.63;;;6.17;100.00
17764;BME280;22245;52.832;13.816;2023-12-20T04:37:45;100542.28;;;6.17;100.00
17764;BME280;22245;52.832;13.816;2023-12-20T04:41:09;100552.31;;;6.12;100.00
17764;BME280;22245;52.832;13.816;2023-12-20T04:44:31;100558.88;;;6.06;100.00
17764;BME280;22245;52.832;13.816;2023-12-20T04:47:52;100561.53;;;6.06;100.00
17764;BME280;22245;52.832;13.816;2023-12-20T04:51:13;100545.97;;;6.02;100.00
17764;BME280;22245;52.832;13.816;2023-12-20T04:54:36;100549.88;;;5.96;100.00
17764;BME280;22245;52.832;13.816;2023-12-20T04:58:00;100553.47;;;5.95;100.00
17764;BME280;22245;52.832;13.816;2023-12-20T05:01:22;100555.25;;;5.94;100.00
17764;BME280;22245;52.832;13.816;2023-12-20T05:04:44;100553.69;;;5.92;100.00
17764;BME280;22245;52.832;13.816;2023-12-20T05:08:06;100545.84;;;5.90;100.00
17764;BME280;22245;52.832;13.816;2023-12-20T05:11:29;100539.06;;;5.86;100.00
17764;BME280;22245;52.832;13.816;2023-12-20T05:14:51;100538.84;;;5.76;100.00
17764;BME280;22245;52.832;13.816;2023-12-20T05:18:13;100557.03;;;5.68;100.00
17764;BME280;22245;52.832;13.816;2023-12-20T05:21:34;100552.50;;;5.70;100.00
17764;BME280;22245;52.832;13.816;2023-12-20T05:24:56;100545.31;;;5.72;100.00
17764;BME280;22245;52.832;13.816;2023-12-20T05:28:19;100552.69;;;5.67;100.00
17764;BME280;22245;52.832;13.816;2023-12-20T05:31:41;100537.69;;;5.68;100.00
17764;BME280;22245;52.832;13.816;2023-12-20T05:35:04;100534.41;;;5.64;100.00
17764;BME280;22245;52.832;13.816;2023-12-20T05:38:25;100521.53;;;5.72;100.00
17764;BME280;22245;52.832;13.816;2023-12-20T05:41:47;100520.34;;;5.63;100.00
17764;BME280;22245;52.832;13.816;2023-12-20T05:45:10;100520.47;;;5.62;100.00
17764;BME280;22245;52.832;13.816;2023-12-20T05:48:31;100533.75;;;5.60;100.00
17764;BME280;22245;52.832;13.816;2023-12-20T05:51:53;100533.16;;;5.57;100.00
17764;BME280;22245;52.832;13.816;2023-12-20T05:55:15;100536.41;;;5.60;100.00
17764;BME280;22245;52.832;13.816;2023-12-20T05:58:38;100532.78;;;5.48;100.00
17764;BME280;22245;52.832;13.816;2023-12-20T06:02:03;100520.44;;;5.49;100.00
17764;BME280;22245;52.832;13.816;2023-12-20T06:05:25;100507.31;;;5.47;100.00
17764;BME280;22245;52.832;13.816;2023-12-20T06:08:46;100497.63;;;5.48;100.00
17764;BME280;22245;52.832;13.816;2023-12-20T06:12:08;100495.28;;;5.43;100.00
17764;BME280;22245;52.832;13.816;2023-12-20T06:15:30;100490.34;;;5.39;100.00
17764;BME280;22245;52.832;13.816;2023-12-20T06:18:53;100491.06;;;5.41;100.00
17764;BME280;22245;52.832;13.816;2023-12-20T06:22:15;100496.44;;;5.39;100.00
17764;BME280;22245;52.832;13.816;2023-12-20T06:25:36;100502.78;;;5.36;100.00
17764;BME280;22245;52.832;13.816;2023-12-20T06:28:58;100494.88;;;5.36;100.00
17764;BME280;22245;52.832;13.816;2023-12-20T06:32:19;100490.00;;;5.43;100.00
17764;BME280;22245;52.832;13.816;2023-12-20T06:35:42;100502.38;;;5.43;100.00
17764;BME280;22245;52.832;13.816;2023-12-20T06:39:03;100499.94;;;5.40;100.00
17764;BME280;22245;52.832;13.816;2023-12-20T06:42:25;100499.41;;;5.34;100.00
17764;BME280;22245;52.832;13.816;2023-12-20T06:45:46;100502.16;;;5.33;100.00
17764;BME280;22245;52.832;13.816;2023-12-20T06:49:08;100505.19;;;5.27;100.00
17764;BME280;22245;52.832;13.816;2023-12-20T06:52:31;100492.81;;;5.27;100.00
17764;BME280;22245;52.832;13.816;2023-12-20T06:55:53;100495.47;;;5.27;100.00
17764;BME280;22245;52.832;13.816;2023-12-20T06:59:16;100493.78;;;5.26;100.00
17764;BME280;22245;52.832;13.816;2023-12-20T07:02:37;100484.91;;;5.27;100.00
17764;BME280;22245;52.832;13.816;2023-12-20T07:05:59;100485.84;;;5.26;100.00
17764;BME280;22245;52.832;13.816;2023-12-20T07:09:21;100491.25;;;5.25;100.00
17764;BME280;22245;52.832;13.816;2023-12-20T07:12:43;100492.94;;;5.26;100.00
17764;BME280;22245;52.832;13.816;2023-12-20T07:16:05;100490.53;;;5.35;100.00
17764;BME280;22245;52.832;13.816;2023-12-20T07:19:27;100483.44;;;5.36;100.00
17764;BME280;22245;52.832;13.816;2023-12-20T07:22:49;100491.81;;;5.43;100.00
17764;BME280;22245;52.832;13.816;2023-12-20T07:26:12;100485.78;;;5.41;100.00
17764;BME280;22245;52.832;13.816;2023-12-20T07:29:34;100490.41;;;5.37;100.00
17764;BME280;22245;52.832;13.816;2023-12-20T07:32:55;100487.16;;;5.33;100.00
17764;BME280;22245;52.832;13.816;2023-12-20T07:36:17;100483.16;;;5.41;100.00
17764;BME280;22245;52.832;13.816;2023-12-20T07:39:39;100477.72;;;5.29;100.00
17764;BME280;22245;52.832;13.816;2023-12-20T07:43:03;100484.59;;;5.32;100.00
17764;BME280;22245;52.832;13.816;2023-12-20T07:46:24;100481.75;;;5.35;100.00
17764;BME280;22245;52.832;13.816;2023-12-20T07:49:46;100486.22;;;5.34;100.00
17764;BME280;22245;52.832;13.816;2023-12-20T07:53:08;100480.81;;;5.36;100.00
17764;BME280;22245;52.832;13.816;2023-12-20T07:56:30;100476.38;;;5.36;100.00
17764;BME280;22245;52.832;13.816;2023-12-20T07:59:52;100485.06;;;5.39;100.00
17764;BME280;22245;52.832;13.816;2023-12-20T08:03:14;100477.53;;;5.32;100.00
17764;BME280;22245;52.832;13.816;2023-12-20T08:06:36;100480.72;;;5.38;100.00
17764;BME280;22245;52.832;13.816;2023-12-20T08:09:58;100483.38;;;5.38;100.00
17764;BME280;22245;52.832;13.816;2023-12-20T08:13:20;100483.25;;;5.39;100.00
17764;BME280;22245;52.832;13.816;2023-12-20T08:16:46;100487.47;;;5.42;100.00
17764;BME280;22245;52.832;13.816;2023-12-20T08:20:08;100484.72;;;5.43;100.00
17764;BME280;22245;52.832;13.816;2023-12-20T08:23:32;100475.00;;;5.44;100.00
17764;BME280;22245;52.832;13.816;2023-12-20T08:26:53;100475.97;;;5.43;100.00
17764;BME280;22245;52.832;13.816;2023-12-20T08:30:15;100478.19;;;5.49;100.00
17764;BME280;22245;52.832;13.816;2023-12-20T08:33:39;100472.16;;;5.47;100.00
17764;BME280;22245;52.832;13.816;2023-12-20T08:37:00;100482.31;;;5.53;100.00
17764;BME280;22245;52.832;13.816;2023-12-20T08:40:22;100469.00;;;5.55;100.00
17764;BME280;22245;52.832;13.816;2023-12-20T08:43:44;100460.88;;;5.58;100.00
17764;BME280;22245;52.832;13.816;2023-12-20T08:47:05;100453.78;;;5.58;100.00
17764;BME280;22245;52.832;13.816;2023-12-20T08:50:29;100449.44;;;5.57;100.00
17764;BME280;22245;52.832;13.816;2023-12-20T08:53:51;100445.63;;;5.61;100.00
17764;BME280;22245;52.832;13.816;2023-12-20T08:57:12;100448.19;;;5.63;100.00
17764;BME280;22245;52.832;13.816;2023-12-20T09:00:34;100432.84;;;5.68;100.00
17764;BME280;22245;52.832;13.816;2023-12-20T09:03:56;100447.97;;;5.66;99.59
17764;BME280;22245;52.832;13.816;2023-12-20T09:07:22;100448.06;;;5.64;99.41
17764;BME280;22245;52.832;13.816;2023-12-20T09:10:44;100449.00;;;5.63;99.59
17764;BME280;22245;52.832;13.816;2023-12-20T09:14:06;100455.16;;;5.64;99.31
17764;BME280;22245;52.832;13.816;2023-12-20T09:17:27;100453.78;;;5.71;98.33
17764;BME280;22245;52.832;13.816;2023-12-20T09:20:49;100432.53;;;5.73;98.87
17764;BME280;22245;52.832;13.816;2023-12-20T09:24:12;100438.03;;;5.70;97.95
17764;BME280;22245;52.832;13.816;2023-12-20T09:27:34;100437.91;;;5.71;97.78
17764;BME280;22245;52.832;13.816;2023-12-20T09:30:55;100422.19;;;5.70;98.15
17764;BME280;22245;52.832;13.816;2023-12-20T09:34:16;100419.41;;;5.71;97.96
17764;BME280;22245;52.832;13.816;2023-12-20T09:37:38;100427.13;;;5.74;97.29
17764;BME280;22245;52.832;13.816;2023-12-20T09:41:03;100410.00;;;5.80;97.37
17764;BME280;22245;52.832;13.816;2023-12-20T09:44:24;100409.06;;;5.81;97.37
17764;BME280;22245;52.832;13.816;2023-12-20T09:47:46;100410.75;;;5.82;98.08
17764;BME280;22245;52.832;13.816;2023-12-20T09:51:08;100415.28;;;5.80;97.50
17764;BME280;22245;52.832;13.816;2023-12-20T09:54:30;100407.38;;;5.80;97.98
17764;BME280;22245;52.832;13.816;2023-12-20T09:57:53;100417.50;;;5.86;97.05
17764;BME280;22245;52.832;13.816;2023-12-20T10:01:15;100417.72;;;5.83;96.76
17764;BME280;22245;52.832;13.816;2023-12-20T10:04:37;100418.31;;;5.87;96.77
17764;BME280;22245;52.832;13.816;2023-12-20T10:08:00;100391.81;;;5.88;96.85
17764;BME280;22245;52.832;13.816;2023-12-20T10:11:23;100375.94;;;5.88;97.19
17764;BME280;22245;52.832;13.816;2023-12-20T10:14:46;100382.09;;;5.89;96.75
17764;BME280;22245;52.832;13.816;2023-12-20T10:18:07;100365.06;;;5.93;97.14
17764;BME280;22245;52.832;13.816;2023-12-20T10:21:29;100356.41;;;5.91;96.08
17764;BME280;22245;52.832;13.816;2023-12-20T10:24:51;100359.78;;;5.93;97.47
17764;BME280;22245;52.832;13.816;2023-12-20T10:28:13;100358.19;;;5.90;96.07
17764;BME280;22245;52.832;13.816;2023-12-20T10:31:39;100339.44;;;5.93;96.12
17764;BME280;22245;52.832;13.816;2023-12-20T10:35:03;100336.94;;;5.92;96.68
17764;BME280;22245;52.832;13.816;2023-12-20T10:38:25;100343.69;;;5.96;97.53
17764;BME280;22245;52.832;13.816;2023-12-20T10:41:47;100346.00;;;6.01;96.87
17764;BME280;22245;52.832;13.816;2023-12-20T10:45:09;100322.31;;;5.99;96.84
17764;BME280;22245;52.832;13.816;2023-12-20T10:48:32;100320.22;;;6.04;97.30
17764;BME280;22245;52.832;13.816;2023-12-20T10:51:56;100318.38;;;6.05;96.91
17764;BME280;22245;52.832;13.816;2023-12-20T10:55:21;100305.31;;;6.03;96.77
17764;BME280;22245;52.832;13.816;2023-12-20T10:58:43;100305.16;;;6.05;95.85
17764;BME280;22245;52.832;13.816;2023-12-20T11:02:06;100305.81;;;6.08;96.05
17764;BME280;22245;52.832;13.816;2023-12-20T11:05:40;100305.97;;;6.18;94.57
17764;BME280;22245;52.832;13.816;2023-12-20T11:09:14;100291.16;;;6.16;95.30
17764;BME280;22245;52.832;13.816;2023-12-20T11:12:43;100278.06;;;6.14;94.08
17764;BME280;22245;52.832;13.816;2023-12-20T11:16:07;100277.00;;;6.17;95.14
17764;BME280;22245;52.832;13.816;2023-12-20T11:19:29;100260.16;;;6.18;95.83
17764;BME280;22245;52.832;13.816;2023-12-20T11:22:54;100249.09;;;6.13;95.44
17764;BME280;22245;52.832;13.816;2023-12-20T11:26:22;100242.50;;;6.18;95.11
17764;BME280;22245;52.832;13.816;2023-12-20T11:29:51;100233.38;;;6.22;94.02
17764;BME280;22245;52.832;13.816;2023-12-20T11:33:13;100225.06;;;6.16;94.28
17764;BME280;22245;52.832;13.816;2023-12-20T11:36:35;100230.75;;;6.22;93.69
17764;BME280;22245;52.832;13.816;2023-12-20T11:40:05;100212.97;;;6.25;93.72
17764;BME280;22245;52.832;13.816;2023-12-20T11:43:30;100218.97;;;6.27;93.33
17764;BME280;22245;52.832;13.816;2023-12-20T11:46:55;100207.56;;;6.26;93.79
17764;BME280;22245;52.832;13.816;2023-12-20T11:50:18;100201.81;;;6.32;92.92
17764;BME280;22245;52.832;13.816;2023-12-20T11:53:41;100188.22;;;6.37;93.19
17764;BME280;22245;52.832;13.816;2023-12-20T11:57:04;100175.44;;;6.19;93.34
17764;BME280;22245;52.832;13.816;2023-12-20T12:00:26;100164.16;;;6.29;94.51
17764;BME280;22245;52.832;13.816;2023-12-20T12:03:48;100156.22;;;6.29;94.63
17764;BME280;22245;52.832;13.816;2023-12-20T12:07:09;100156.94;;;6.31;94.55
17764;BME280;22245;52.832;13.816;2023-12-20T12:10:31;100145.88;;;6.26;95.34
17764;BME280;22245;52.832;13.816;2023-12-20T12:13:54;100144.44;;;6.33;95.53
17764;BME280;22245;52.832;13.816;2023-12-20T12:17:16;100131.59;;;6.28;95.72
17764;BME280;22245;52.832;13.816;2023-12-20T12:20:38;100123.06;;;6.36;96.00
17764;BME280;22245;52.832;13.816;2023-12-20T12:24:07;100101.66;;;6.39;96.07
17764;BME280;22245;52.832;13.816;2023-12-20T12:27:29;100100.94;;;6.37;95.88
17764;BME280;22245;52.832;13.816;2023-12-20T12:30:57;100112.84;;;6.31;97.06
17764;BME280;22245;52.832;13.816;2023-12-20T12:34:20;100103.56;;;6.37;97.39
17764;BME280;22245;52.832;13.816;2023-12-20T12:37:42;100099.50;;;6.33;97.19
17764;BME280;22245;52.832;13.816;2023-12-20T12:41:04;100107.66;;;6.30;98.57
17764;BME280;22245;52.832;13.816;2023-12-20T12:44:25;100106.47;;;6.22;98.92
17764;BME280;22245;52.832;13.816;2023-12-20T12:47:48;100100.44;;;6.20;99.46
17764;BME280;22245;52.832;13.816;2023-12-20T12:51:10;100099.25;;;6.13;100.00
17764;BME280;22245;52.832;13.816;2023-12-20T12:54:33;100104.06;;;6.08;100.00
17764;BME280;22245;52.832;13.816;2023-12-20T12:57:55;100106.22;;;6.14;99.54
17764;BME280;22245;52.832;13.816;2023-12-20T13:01:16;100097.81;;;6.09;99.58
17764;BME280;22245;52.832;13.816;2023-12-20T13:04:40;100107.03;;;6.03;99.89
17764;BME280;22245;52.832;13.816;2023-12-20T13:08:02;100101.75;;;6.03;99.48
17764;BME280;22245;52.832;13.816;2023-12-20T13:11:23;100094.78;;;6.02;100.00
17764;BME280;22245;52.832;13.816;2023-12-20T13:14:45;100115.50;;;5.96;99.22
17764;BME280;22245;52.832;13.816;2023-12-20T13:18:06;100116.22;;;5.86;98.50
17764;BME280;22245;52.832;13.816;2023-12-20T13:21:29;100125.34;;;5.82;98.43
17764;BME280;22245;52.832;13.816;2023-12-20T13:24:51;100134.06;;;5.71;97.35
17764;BME280;22245;52.832;13.816;2023-12-20T13:28:13;100136.84;;;5.70;97.06
17764;BME280;22245;52.832;13.816;2023-12-20T13:31:35;100145.09;;;5.65;96.91
17764;BME280;22245;52.832;13.816;2023-12-20T13:34:58;100136.03;;;5.56;96.84
17764;BME280;22245;52.832;13.816;2023-12-20T13:38:21;100138.41;;;5.48;97.17
17764;BME280;22245;52.832;13.816;2023-12-20T13:41:42;100137.69;;;5.46;97.75
17764;BME280;22245;52.832;13.816;2023-12-20T13:45:05;100122.91;;;5.43;97.54
17764;BME280;22245;52.832;13.816;2023-12-20T13:48:26;100106.56;;;5.38;98.27
17764;BME280;22245;52.832;13.816;2023-12-20T13:51:48;100127.91;;;5.35;98.96
17764;BME280;22245;52.832;13.816;2023-12-20T13:55:11;100139.56;;;5.32;99.35
17764;BME280;22245;52.832;13.816;2023-12-20T13:58:33;100140.81;;;5.27;100.00
17764;BME280;22245;52.832;13.816;2023-12-20T14:01:57;100136.38;;;5.27;100.00
17764;BME280;22245;52.832;13.816;2023-12-20T14:05:18;100141.25;;;5.33;100.00
17764;BME280;22245;52.832;13.816;2023-12-20T14:08:44;100146.84;;;5.29;100.00
17764;BME280;22245;52.832;13.816;2023-12-20T14:12:07;100146.94;;;5.27;100.00
17764;BME280;22245;52.832;13.816;2023-12-20T14:15:29;100149.81;;;5.24;100.00
17764;BME280;22245;52.832;13.816;2023-12-20T14:18:56;100159.19;;;5.28;100.00
17764;BME280;22245;52.832;13.816;2023-12-20T14:22:18;100166.28;;;5.28;100.00
17764;BME280;22245;52.832;13.816;2023-12-20T14:25:41;100173.16;;;5.30;100.00
17764;BME280;22245;52.832;13.816;2023-12-20T14:29:12;100167.63;;;5.33;100.00
17764;BME280;22245;52.832;13.816;2023-12-20T14:32:35;100166.47;;;5.38;100.00
17764;BME280;22245;52.832;13.816;2023-12-20T14:35:58;100164.31;;;5.43;100.00
17764;BME280;22245;52.832;13.816;2023-12-20T14:39:19;100173.19;;;5.42;100.00
17764;BME280;22245;52.832;13.816;2023-12-20T14:42:41;100173.06;;;5.43;100.00
17764;BME280;22245;52.832;13.816;2023-12-20T14:46:03;100187.22;;;5.42;100.00
17764;BME280;22245;52.832;13.816;2023-12-20T14:49:26;100196.09;;;5.41;100.00
17764;BME280;22245;52.832;13.816;2023-12-20T14:52:48;100186.28;;;5.43;99.20
17764;BME280;22245;52.832;13.816;2023-12-20T14:56:10;100186.41;;;5.42;96.81
17764;BME280;22245;52.832;13.816;2023-12-20T14:59:31;100194.28;;;5.30;95.36
17764;BME280;22245;52.832;13.816;2023-12-20T15:02:55;100197.31;;;5.24;94.75
17764;BME280;22245;52.832;13.816;2023-12-20T15:06:16;100207.59;;;5.16;93.49
17764;BME280;22245;52.832;13.816;2023-12-20T15:09:38;100214.59;;;5.04;92.27
17764;BME280;22245;52.832;13.816;2023-12-20T15:13:00;100213.25;;;4.98;92.00
17764;BME280;22245;52.832;13.816;2023-12-20T15:16:22;100223.69;;;5.00;91.74
17764;BME280;22245;52.832;13.816;2023-12-20T15:19:45;100228.34;;;4.96;90.52
17764;BME280;22245;52.832;13.816;2023-12-20T15:23:07;100236.88;;;4.87;90.30
17764;BME280;22245;52.832;13.816;2023-12-20T15:26:28;100219.69;;;4.81;91.06
17764;BME280;22245;52.832;13.816;2023-12-20T15:29:49;100229.09;;;4.72;91.98
17764;BME280;22245;52.832;13.816;2023-12-20T15:33:11;100245.66;;;4.74;92.25
17764;BME280;22245;52.832;13.816;2023-12-20T15:36:34;100255.78;;;4.68;92.82
17764;BME280;22245;52.832;13.816;2023-12-20T15:39:56;100255.44;;;4.59;93.31
17764;BME280;22245;52.832;13.816;2023-12-20T15:43:18;100258.94;;;4.60;93.83
17764;BME280;22245;52.832;13.816;2023-12-20T15:46:39;100262.09;;;4.52;94.36
17764;BME280;22245;52.832;13.816;2023-12-20T15:50:01;100250.81;;;4.50;95.22
17764;BME280;22245;52.832;13.816;2023-12-20T15:53:24;100252.38;;;4.53;95.02
17764;BME280;22245;52.832;13.816;2023-12-20T15:56:46;100246.38;;;4.51;95.10
17764;BME280;22245;52.832;13.816;2023-12-20T16:00:08;100250.16;;;4.46;95.68
17764;BME280;22245;52.832;13.816;2023-12-20T16:03:30;100255.56;;;4.45;96.08
17764;BME280;22245;52.832;13.816;2023-12-20T16:07:00;100255.44;;;4.46;96.40
17764;BME280;22245;52.832;13.816;2023-12-20T16:10:23;100252.78;;;4.46;96.60
17764;BME280;22245;52.832;13.816;2023-12-20T16:13:44;100249.41;;;4.44;96.90
17764;BME280;22245;52.832;13.816;2023-12-20T16:17:06;100241.44;;;4.46;97.38
17764;BME280;22245;52.832;13.816;2023-12-20T16:20:28;100243.94;;;4.47;97.75
17764;BME280;22245;52.832;13.816;2023-12-20T16:23:49;100243.72;;;4.51;97.76
17764;BME280;22245;52.832;13.816;2023-12-20T16:27:11;100250.59;;;4.53;98.02
17764;BME280;22245;52.832;13.816;2023-12-20T16:30:33;100247.88;;;4.55;97.97
17764;BME280;22245;52.832;13.816;2023-12-20T16:33:55;100250.09;;;4.61;97.88
17764;BME280;22245;52.832;13.816;2023-12-20T16:37:17;100246.81;;;4.57;97.72
17764;BME280;22245;52.832;13.816;2023-12-20T16:40:39;100245.75;;;4.60;97.62
17764;BME280;22245;52.832;13.816;2023-12-20T16:44:01;100244.06;;;4.59;97.83
17764;BME280;22245;52.832;13.816;2023-12-20T16:47:23;100251.34;;;4.55;98.07
17764;BME280;22245;52.832;13.816;2023-12-20T16:50:44;100258.72;;;4.50;98.07
17764;BME280;22245;52.832;13.816;2023-12-20T16:54:06;100261.06;;;4.55;98.41
17764;BME280;22245;52.832;13.816;2023-12-20T16:57:28;100263.56;;;4.56;97.70
17764;BME280;22245;52.832;13.816;2023-12-20T17:00:50;100267.06;;;4.57;97.64
17764;BME280;22245;52.832;13.816;2023-12-20T17:04:12;100274.25;;;4.55;97.02
17764;BME280;22245;52.832;13.816;2023-12-20T17:07:34;100267.47;;;4.51;96.67
17764;BME280;22245;52.832;13.816;2023-12-20T17:10:56;100256.81;;;4.52;96.60
17764;BME280;22245;52.832;13.816;2023-12-20T17:14:18;100266.50;;;4.52;96.68
17764;BME280;22245;52.832;13.816;2023-12-20T17:17:40;100261.06;;;4.55;97.07
17764;BME280;22245;52.832;13.816;2023-12-20T17:21:05;100278.38;;;4.59;96.22
17764;BME280;22245;52.832;13.816;2023-12-20T17:24:28;100269.59;;;4.58;95.80
17764;BME280;22245;52.832;13.816;2023-12-20T17:27:50;100270.53;;;4.57;95.91
17764;BME280;22245;52.832;13.816;2023-12-20T17:31:11;100272.22;;;4.45;96.22